Flight Track Log - Related Links

Times and Time Zones

All times are in EDT time to prevent confusion due to time zone crossing. See the FLG4159 flight status page for this flight to view local times or setup timezone preferences in your user account.

Time Position Orientation Groundspeed Altitude Reporting Facility
EDT Latitude Longitude Course Direction KTS MPH feet Rate Location/Type
11:02PM 44.8728 -93.1256 41° Northeast 188 216 3,500  Level Minneapolis Center
11:03PM 44.8694 -93.0264 93° East 264 304 5,500 2,683 Climbing Minneapolis Center
11:04PM 44.9367 -92.9969 17° North 274 315 9,000 2,878 Climbing Minneapolis Center
11:05PM 45.1707 -93.3144 45° Northeast  Level FlightAware Approximate
11:05PM 45.0133 -93.0067 355° North 278 320 11,400  Level Minneapolis Center
11:06PM 45.2312 -93.2293 45° Northeast  Level FlightAware Approximate
11:06PM 45.0992 -93.0175 355° North 309 356 12,900  Level Minneapolis Center
11:07PM 45.2912 -93.1436 45° Northeast  Level FlightAware Approximate
11:07PM 45.1917 -93.0275 356° North 332 382 13,000  Level Minneapolis Center
11:08PM 45.3499 -93.0626 41° Northeast  Level FlightAware Approximate
11:08PM 45.2894 -93.0333 358° North 349 402 13,000  Level Minneapolis Center
11:09PM 45.3833 -92.9881 19° North 354 407 13,000  Level Minneapolis Center
11:10PM 45.4906 -92.9314 20° North 343 395 13,000  Level Minneapolis Center
11:11PM 45.5825 -92.8825 20° North 352 405 13,000  Level Minneapolis Center
11:12PM 45.6750 -92.8325 21° North 357 411 13,000  Level Minneapolis Center
11:13PM 45.7500 -92.7944 19° North 356 410 13,000  Level Minneapolis Center
11:14PM 45.8622 -92.7339 21° North 360 414 13,000  Level Minneapolis Center
11:16PM 45.9556 -92.6864 19° North 358 412 13,000  Level Minneapolis Center
11:17PM 46.0494 -92.6336 21° North 362 417 13,000  Level Minneapolis Center
11:18PM 46.1456 -92.5817 21° North 367 422 13,000 -443 Level Minneapolis Center
11:19PM 46.2394 -92.5406 17° North 333 383 12,100 -1,180 Descending Minneapolis Center
11:20PM 46.3167 -92.5211 10° North 293 337 10,600 -1,426 Descending Minneapolis Center
11:21PM 46.3931 -92.4978 12° North 283 326 9,200 -1,366 Descending Minneapolis Center
11:22PM 46.4661 -92.4739 13° North 274 315 7,800 -1,366 Descending Minneapolis Center
11:23PM 46.5375 -92.4525 12° North 266 306 6,400 -1,377 Descending Minneapolis Center
11:24PM 46.6139 -92.4292 12° North 271 312 5,000 -1,230 Descending Minneapolis Center
11:25PM 46.6894 -92.4064 12° North 276 318 3,900 -639 Descending Minneapolis Center
11:26PM 46.7608 -92.3817 13° North 244 281 3,700 -246 Descending Minneapolis Center
11:27PM 46.8128 -92.3683 10° North 212 244 3,400 -293 Descending Minneapolis Center
11:28PM 46.8450 -92.3331 37° Northeast 182 209 3,100 -634 Descending Minneapolis Center
11:29PM 46.8439 -92.2753 92° East 159 183 2,100 -738 Descending Minneapolis Center
11:30PM 46.8422 -92.2147 92° East 147 169 1,600 -492 Descending Minneapolis Center

Login

Don't have an account? Register now (free) for customized features, flight alerts, and more!